createdAt,value
2022-09-30T00:00:47.525Z,6.40
2022-09-30T00:05:56.191Z,6.57
2022-09-30T00:11:01.656Z,6.20
2022-09-30T00:16:03.743Z,6.57
2022-09-30T00:21:08.182Z,6.40
2022-09-30T00:26:18.339Z,6.07
2022-09-30T00:31:21.495Z,5.90
2022-09-30T00:36:22.988Z,5.57
2022-09-30T00:41:24.991Z,5.95
2022-09-30T00:46:39.788Z,6.03
2022-09-30T00:51:54.497Z,5.57
2022-09-30T00:56:59.088Z,5.63
2022-09-30T01:02:01.384Z,6.53
2022-09-30T01:07:05.861Z,6.65
2022-09-30T01:12:10.911Z,8.25
2022-09-30T01:17:41.148Z,7.22
2022-09-30T01:22:45.210Z,7.57
2022-09-30T01:28:04.844Z,7.15
2022-09-30T01:33:19.492Z,8.00
2022-09-30T01:38:49.654Z,7.07
2022-09-30T01:44:08.522Z,7.68
2022-09-30T01:49:38.517Z,7.00
2022-09-30T01:54:48.251Z,6.45
2022-09-30T02:00:04.103Z,6.47
2022-09-30T02:05:11.610Z,6.78
2022-09-30T02:10:20.816Z,6.25
2022-09-30T02:15:28.284Z,6.03
2022-09-30T02:20:33.170Z,7.00
2022-09-30T02:25:42.292Z,6.45
2022-09-30T02:30:49.985Z,5.70
2022-09-30T02:35:59.027Z,5.97
2022-09-30T02:41:06.558Z,5.50
2022-09-30T02:51:26.461Z,6.78
2022-09-30T02:56:45.940Z,6.47
2022-09-30T03:01:47.547Z,6.50
2022-09-30T03:06:49.362Z,6.45
2022-09-30T03:11:54.210Z,7.60
2022-09-30T03:17:08.500Z,8.18
2022-09-30T03:22:40.608Z,7.05
2022-09-30T03:27:54.670Z,6.80
2022-09-30T03:33:25.085Z,7.55
2022-09-30T03:38:49.414Z,6.90
2022-09-30T03:44:22.140Z,6.50
2022-09-30T03:49:28.309Z,7.07
2022-09-30T03:54:29.878Z,7.15
2022-09-30T03:59:31.224Z,7.00
2022-09-30T04:04:32.610Z,6.15
2022-09-30T04:09:34.663Z,7.20
2022-09-30T04:14:36.423Z,6.18
2022-09-30T04:19:40.165Z,7.32
2022-09-30T04:24:41.843Z,6.38
2022-09-30T04:29:43.206Z,6.30
2022-09-30T04:34:44.551Z,6.20
2022-09-30T04:39:45.876Z,7.05
2022-09-30T04:44:48.086Z,6.85
2022-09-30T04:49:49.416Z,7.30
2022-09-30T04:54:50.760Z,7.85
2022-09-30T04:59:52.256Z,6.18
2022-09-30T05:04:55.159Z,6.95
2022-09-30T05:09:56.514Z,6.43
2022-09-30T05:14:57.840Z,5.93
2022-09-30T05:19:59.625Z,6.60
2022-09-30T05:25:03.832Z,6.68
2022-09-30T05:30:06.687Z,7.53
2022-09-30T05:35:09.261Z,9.10
2022-09-30T05:40:10.749Z,10.27
2022-09-30T05:45:12.124Z,8.32
2022-09-30T05:50:13.485Z,6.60
2022-09-30T05:55:16.461Z,6.65
2022-09-30T06:00:18.854Z,7.30
2022-09-30T06:05:22.013Z,6.85
2022-09-30T06:10:24.081Z,6.75
2022-09-30T06:15:26.873Z,8.40
2022-09-30T06:20:28.216Z,5.80
2022-09-30T06:25:30.049Z,5.82
2022-09-30T06:30:35.071Z,5.50
2022-09-30T06:35:36.909Z,5.43
2022-09-30T06:40:38.499Z,5.20
2022-09-30T06:45:39.915Z,5.05
2022-09-30T06:50:43.500Z,4.53
2022-09-30T06:55:54.557Z,5.30
2022-09-30T07:01:02.150Z,5.47
2022-09-30T07:11:12.518Z,5.03
2022-09-30T07:16:14.580Z,5.43
2022-09-30T07:21:16.415Z,5.38
2022-09-30T07:26:22.729Z,5.65
2022-09-30T07:31:35.261Z,5.68
2022-09-30T07:36:39.234Z,5.20
2022-09-30T07:41:40.836Z,5.13
2022-09-30T07:46:43.873Z,4.97
2022-09-30T07:51:45.611Z,5.50
2022-09-30T08:02:14.319Z,5.97
2022-09-30T08:07:17.633Z,5.60
2022-09-30T08:12:18.983Z,5.68
2022-09-30T08:17:20.327Z,5.38
2022-09-30T08:22:23.754Z,5.57
2022-09-30T08:27:25.151Z,5.47
2022-09-30T08:32:30.531Z,6.25
2022-09-30T08:37:31.987Z,6.00
2022-09-30T08:42:41.607Z,6.75
2022-09-30T08:47:56.241Z,6.32
2022-09-30T08:53:02.152Z,6.43
2022-09-30T08:58:05.030Z,6.47
2022-09-30T09:03:06.636Z,5.90
2022-09-30T09:08:28.559Z,5.82
2022-09-30T09:13:51.125Z,6.40
2022-09-30T09:19:08.227Z,7.22
2022-09-30T09:24:18.125Z,6.43
2022-09-30T09:29:43.817Z,6.30
2022-09-30T09:34:51.677Z,7.22
2022-09-30T09:40:04.538Z,6.07
2022-09-30T09:45:14.881Z,6.80
2022-09-30T09:50:27.662Z,6.40
2022-09-30T09:55:29.072Z,5.97
2022-09-30T10:00:48.611Z,6.20
2022-09-30T10:06:12.739Z,6.53
2022-09-30T10:11:22.856Z,5.93
2022-09-30T10:16:37.399Z,6.45
2022-09-30T10:21:38.748Z,6.43
2022-09-30T10:26:48.457Z,6.38
2022-09-30T10:31:54.033Z,4.70
2022-09-30T10:37:01.452Z,4.15
2022-09-30T10:42:17.139Z,4.82
2022-09-30T10:47:26.159Z,4.65
2022-09-30T10:52:32.292Z,4.00
2022-09-30T10:57:36.308Z,4.15
2022-09-30T11:02:41.782Z,4.13
2022-09-30T11:07:53.378Z,4.10
2022-09-30T11:13:19.385Z,3.30
2022-09-30T11:18:52.584Z,3.75
2022-09-30T11:24:02.352Z,3.08
2022-09-30T11:29:26.670Z,3.53
2022-09-30T11:34:44.887Z,2.25
2022-09-30T11:40:19.317Z,2.42
2022-09-30T11:45:39.761Z,2.40
2022-09-30T11:51:18.721Z,2.92
2022-09-30T11:56:46.190Z,2.10
2022-09-30T12:07:18.965Z,1.83
2022-09-30T12:12:20.829Z,1.27
2022-09-30T12:17:32.071Z,1.23
2022-09-30T12:22:41.131Z,1.60
2022-09-30T12:28:27.023Z,1.33
2022-09-30T12:33:43.273Z,1.35
2022-09-30T12:39:08.159Z,1.40
2022-09-30T12:44:35.996Z,0.90
2022-09-30T12:49:40.178Z,0.70
2022-09-30T12:54:48.086Z,0.75
2022-09-30T13:00:00.965Z,0.80
2022-09-30T13:05:46.719Z,0.93
2022-09-30T13:10:58.360Z,1.45
2022-09-30T13:16:05.623Z,0.90
2022-09-30T13:21:08.414Z,0.60
2022-09-30T13:26:34.732Z,0.63
2022-09-30T13:31:45.290Z,0.60
2022-09-30T13:36:52.487Z,0.57
2022-09-30T13:42:01.507Z,0.90
2022-09-30T13:47:22.001Z,0.50
2022-09-30T13:52:31.364Z,0.60
2022-09-30T13:57:49.017Z,0.30
2022-09-30T14:03:26.482Z,0.40
2022-09-30T14:08:50.615Z,0.50
2022-09-30T14:14:17.267Z,0.70
2022-09-30T14:19:32.517Z,0.50
2022-09-30T14:24:37.833Z,0.50
2022-09-30T14:29:45.480Z,0.43
2022-09-30T14:34:48.524Z,0.40
2022-09-30T14:39:50.076Z,0.40
2022-09-30T14:44:54.206Z,0.30
2022-09-30T14:49:55.596Z,0.47
2022-09-30T14:54:57.943Z,0.45
2022-09-30T15:00:21.191Z,0.40
2022-09-30T15:05:23.001Z,0.50
2022-09-30T15:10:25.062Z,0.50
2022-09-30T15:15:33.299Z,0.50
2022-09-30T15:20:36.655Z,0.28
2022-09-30T15:25:40.029Z,0.30
2022-09-30T15:30:43.059Z,0.40
2022-09-30T15:35:45.321Z,0.40
2022-09-30T15:40:58.954Z,0.43
2022-09-30T15:46:19.507Z,0.88
2022-09-30T15:51:36.349Z,0.45
2022-09-30T15:56:37.846Z,2.50
2022-09-30T16:01:44.397Z,0.40
2022-09-30T16:06:54.555Z,0.40
2022-09-30T16:12:08.722Z,0.50
2022-09-30T16:17:27.002Z,0.40
2022-09-30T16:22:40.657Z,0.30
2022-09-30T16:27:42.193Z,0.38
2022-09-30T16:32:47.455Z,0.57
2022-09-30T16:37:50.762Z,0.57
2022-09-30T16:42:54.807Z,0.40
2022-09-30T16:47:58.050Z,0.60
2022-09-30T16:52:59.429Z,0.57
2022-09-30T16:58:00.953Z,0.52
2022-09-30T17:03:02.392Z,1.15
2022-09-30T17:08:03.761Z,0.70
2022-09-30T17:13:06.032Z,0.85
2022-09-30T17:18:10.036Z,1.17
2022-09-30T17:23:12.511Z,1.10
2022-09-30T17:28:14.550Z,3.05
2022-09-30T17:33:18.503Z,2.22
2022-09-30T17:38:19.905Z,3.33
2022-09-30T17:43:21.514Z,4.22
2022-09-30T17:48:23.548Z,4.35
2022-09-30T17:53:25.074Z,5.70
2022-09-30T17:58:27.069Z,7.60
2022-09-30T18:03:28.460Z,14.40
2022-09-30T18:08:29.842Z,10.18
2022-09-30T18:13:31.178Z,9.10
2022-09-30T18:18:35.053Z,10.98
2022-09-30T18:23:36.452Z,18.83
2022-09-30T18:28:38.042Z,21.05
2022-09-30T18:33:39.557Z,19.08
2022-09-30T18:38:40.931Z,14.05
2022-09-30T18:43:45.092Z,13.25
2022-09-30T18:48:50.043Z,15.35
2022-09-30T18:53:57.418Z,12.50
2022-09-30T19:04:05.812Z,10.60
2022-09-30T19:09:08.800Z,8.88
2022-09-30T19:14:12.436Z,9.25
2022-09-30T19:19:13.989Z,18.63
2022-09-30T19:24:17.028Z,9.43
2022-09-30T19:29:18.493Z,8.20
2022-09-30T19:34:30.286Z,9.98
2022-09-30T19:39:44.268Z,9.38
2022-09-30T19:44:47.056Z,7.38
2022-09-30T19:49:48.456Z,4.65
2022-09-30T19:54:50.768Z,5.45
2022-09-30T19:59:53.252Z,5.35
2022-09-30T20:04:54.805Z,5.63
2022-09-30T20:09:56.777Z,5.32
2022-09-30T20:15:16.656Z,5.00
2022-09-30T20:20:37.047Z,4.63
2022-09-30T20:25:38.771Z,4.60
2022-09-30T20:30:48.189Z,5.57
2022-09-30T20:35:50.862Z,8.70
2022-09-30T20:40:57.042Z,7.90
2022-09-30T20:46:03.351Z,7.35
2022-09-30T20:51:10.076Z,7.50
2022-09-30T20:56:15.112Z,7.17
2022-09-30T21:01:18.469Z,6.68
2022-09-30T21:06:25.012Z,6.55
2022-09-30T21:11:26.509Z,6.63
2022-09-30T21:16:29.467Z,6.55
2022-09-30T21:21:31.265Z,8.27
2022-09-30T21:26:32.835Z,8.23
2022-09-30T21:31:35.172Z,9.00
2022-09-30T21:36:38.876Z,8.65
2022-09-30T21:41:41.065Z,6.95
2022-09-30T21:46:48.035Z,7.63
2022-09-30T21:51:51.552Z,7.03
2022-09-30T21:56:53.398Z,7.03
2022-09-30T22:01:54.880Z,6.70
2022-09-30T22:06:56.291Z,7.38
2022-09-30T22:11:58.097Z,6.85
2022-09-30T22:16:59.505Z,6.57
2022-09-30T22:22:01.667Z,6.63
2022-09-30T22:27:07.432Z,6.80
2022-09-30T22:32:08.973Z,6.85
2022-09-30T22:37:28.688Z,5.75
2022-09-30T22:42:30.069Z,5.50
2022-09-30T22:47:31.751Z,6.38
2022-09-30T22:52:33.130Z,6.03
2022-09-30T22:57:34.756Z,6.45
2022-09-30T23:02:36.219Z,5.55
2022-09-30T23:07:37.711Z,7.03
2022-09-30T23:12:39.138Z,10.02
2022-09-30T23:17:40.534Z,8.05
2022-09-30T23:22:41.916Z,8.98
2022-09-30T23:27:47.610Z,6.95
2022-09-30T23:32:49.036Z,7.30
2022-09-30T23:37:52.318Z,6.78
2022-09-30T23:42:54.178Z,6.47
2022-09-30T23:47:57.186Z,6.30
2022-09-30T23:52:59.253Z,7.18
2022-09-30T23:58:00.630Z,6.28
